Flight Track Log - Related Links

Times and Time Zones

All times are in EDT time to prevent confusion due to time zone crossing. See the EGF2746 flight status page for this flight to view local times or setup timezone preferences in your user account.

Time Position Orientation Groundspeed Altitude Reporting Facility
EDT Latitude Longitude Course Direction KTS MPH feet Rate Location/Type
Fri 10:34:16 AM 32.9000 -97.0500 332° Northwest 132 152 1,300  Level Dallas / Fort Worth TRACON
Fri 10:35:10 AM 32.9500 -97.0500 360° North 193 222 4,500 2,735 Climbing Dallas / Fort Worth TRACON
Fri 10:36:00 AM 32.8307 -96.8039 10° North  Level FlightAware Approximate
Fri 10:37:00 AM 32.9463 -96.8000 North  Level FlightAware Approximate
Fri 10:37:40 AM 33.1000 -97.0589 357° North 275 316 10,600  Level Fort Worth Center
Fri 10:38:00 AM 33.0500 -96.8500 328° Northwest  Level FlightAware Approximate
Fri 10:38:39 AM 33.1628 -97.0661 354° North 243 280 12,700  Level Fort Worth Center
Fri 10:39:00 AM 33.1520 -96.9155 332° Northwest  Level FlightAware Approximate
Fri 10:39:39 AM 33.2378 -97.0806 351° North 243 280 15,700  Level Fort Worth Center
Fri 10:40:40 AM 33.3131 -97.0903 354° North 255 293 16,900 900 Climbing Fort Worth Center
Fri 10:41:39 AM 33.3903 -97.0900 360° North 287 330 17,500 1,210 Climbing Fort Worth Center
Fri 10:42:39 AM 33.4819 -97.0475 21° North 303 349 19,300 1,785 Climbing Fort Worth Center
Fri 10:43:40 AM 33.5569 -97.0122 21° North 321 369 21,100 1,950 Climbing Fort Worth Center
Fri 10:44:39 AM 33.6531 -96.9692 20° North 327 376 23,200 2,017 Climbing Fort Worth Center
Fri 10:45:39 AM 33.7364 -96.9314 21° North 327 376 25,100 1,950 Climbing Fort Worth Center
Fri 10:46:39 AM 33.8217 -96.8933 20° North 327 376 27,100 1,950 Climbing Fort Worth Center
Fri 10:47:39 AM 33.8989 -96.8581 21° North 313 360 29,000 1,900 Climbing Fort Worth Center
Fri 10:48:39 AM 33.9800 -96.8222 20° North 306 352 30,900 1,438 Climbing Fort Worth Center
Fri 10:49:40 AM 34.0633 -96.7867 19° North 306 352 31,900 1,000 Climbing Fort Worth Center
Fri 10:50:39 AM 34.1528 -96.7433 22° Northeast 320 368 32,900 706 Climbing Fort Worth Center
Fri 10:51:39 AM 34.2528 -96.6975 21° North 345 397 33,300 545 Climbing Fort Worth Center
Fri 10:52:40 AM 34.3547 -96.6514 20° North 374 430 34,000 350 Climbing Fort Worth Center
Fri 10:53:39 AM 34.4650 -96.6000 21° North 400 460 34,000 -353 Level Fort Worth Center
Fri 10:54:39 AM 34.5772 -96.5508 20° North 413 475 33,300 -800 Descending Fort Worth Center
Fri 10:55:39 AM 34.6917 -96.4967 21° North 430 495 32,400 -950 Descending Fort Worth Center
Fri 10:56:39 AM 34.8081 -96.4425 21° North 430 495 31,400 -700 Descending Fort Worth Center
Fri 10:57:39 AM 34.9183 -96.3906 21° North 430 495 31,000 -198 Descending Fort Worth Center
Fri 10:58:40 AM 35.0242 -96.3411 21° North 419 482 31,000  Level Fort Worth Center
Fri 10:59:39 AM 35.1322 -96.2914 21° North 414 476 31,000  Level Fort Worth Center
Fri 11:00:39 AM 35.2444 -96.2392 21° North 414 476 31,000  Level Fort Worth Center
Fri 11:01:40 AM 35.3564 -96.1867 21° North 414 476 31,000  Level Fort Worth Center
Fri 11:02:39 AM 35.4706 -96.1342 21° North 425 489 31,000  Level Fort Worth Center
Fri 11:05:04 AM 35.7542 -95.9981 21° North 448 516 31,000  Level Kansas City Center
Fri 11:06:06 AM 35.8708 -95.9431 21° North 448 516 31,000  Level Kansas City Center
Fri 11:07:08 AM 35.9875 -95.8869 21° North 447 514 31,000  Level Kansas City Center
Fri 11:08:10 AM 36.1028 -95.8331 21° North 443 510 31,000  Level Kansas City Center
Fri 11:09:12 AM 36.2172 -95.7764 22° Northeast 440 506 31,000  Level Kansas City Center
Fri 11:10:13 AM 36.3342 -95.6964 29° Northeast 437 503 31,000  Level Kansas City Center
Fri 11:11:15 AM 36.4403 -95.6261 28° Northeast 435 501 31,000  Level Kansas City Center
Fri 11:12:17 AM 36.5472 -95.5572 27° Northeast 434 499 31,000  Level Kansas City Center
Fri 11:13:19 AM 36.6514 -95.4869 28° Northeast 434 499 31,000  Level Kansas City Center
Fri 11:14:21 AM 36.7592 -95.4153 28° Northeast 434 499 31,000  Level Kansas City Center
Fri 11:15:23 AM 36.8678 -95.3439 28° Northeast 436 502 31,000  Level Kansas City Center
Fri 11:16:24 AM 36.9983 -95.2572 28° Northeast 439 505 31,000  Level Kansas City Center
Fri 11:17:26 AM 37.1067 -95.1853 28° Northeast 438 504 31,000  Level Kansas City Center
Fri 11:18:28 AM 37.2144 -95.1125 28° Northeast 439 505 31,000  Level Kansas City Center
Fri 11:19:30 AM 37.3239 -95.0392 28° Northeast 441 507 31,000  Level Kansas City Center
Fri 11:20:32 AM 37.4333 -94.9647 28° Northeast 445 512 31,000  Level Kansas City Center
Fri 11:21:34 AM 37.5433 -94.8917 28° Northeast 445 512 31,000  Level Kansas City Center
Fri 11:22:36 AM 37.6542 -94.8150 29° Northeast 450 518 31,000  Level Kansas City Center
Fri 11:23:38 AM 37.7767 -94.7306 29° Northeast 451 519 31,000  Level Kansas City Center
Fri 11:24:40 AM 37.9011 -94.6447 29° Northeast 457 526 31,000  Level Kansas City Center
Fri 11:25:42 AM 38.0097 -94.5692 29° Northeast 462 532 31,000  Level Kansas City Center
Fri 11:26:44 AM 38.1325 -94.4839 29° Northeast 455 524 31,000  Level Kansas City Center
Fri 11:27:46 AM 38.2381 -94.4108 29° Northeast 452 520 31,000  Level Kansas City Center
Fri 11:28:48 AM 38.3417 -94.3386 29° Northeast 449 517 31,000  Level Kansas City Center
Fri 11:29:50 AM 38.4633 -94.2536 29° Northeast 447 514 31,000  Level Kansas City Center
Fri 11:30:52 AM 38.5658 -94.1817 29° Northeast 441 507 31,000  Level Kansas City Center
Fri 11:31:54 AM 38.6858 -94.0975 29° Northeast 441 507 31,000  Level Kansas City Center
Fri 11:32:56 AM 38.7889 -94.0244 29° Northeast 442 509 31,000  Level Kansas City Center
Fri 11:33:58 AM 38.9089 -93.9392 29° Northeast 442 509 31,000  Level Kansas City Center
Fri 11:35:00 AM 39.0094 -93.8667 29° Northeast 436 502 31,000  Level Kansas City Center
Fri 11:36:02 AM 39.1292 -93.7817 29° Northeast 439 505 31,000  Level Kansas City Center
Fri 11:37:04 AM 39.2303 -93.7092 29° Northeast 436 502 31,000  Level Kansas City Center
Fri 11:38:06 AM 39.3342 -93.6347 29° Northeast 441 507 31,000  Level Kansas City Center
Fri 11:39:08 AM 39.4606 -93.5433 29° Northeast 437 503 31,000  Level Kansas City Center
Fri 11:40:10 AM 39.5667 -93.4656 29° Northeast 438 504 31,000  Level Kansas City Center
Fri 11:41:12 AM 39.6703 -93.3858 31° Northeast 437 503 31,000  Level Kansas City Center
Fri 11:42:14 AM 39.7786 -93.3133 27° Northeast 439 505 31,000  Level Kansas City Center
Fri 11:43:15 AM 39.8839 -93.2339 30° Northeast 439 505 31,000  Level Kansas City Center
Fri 11:44:17 AM 39.9903 -93.1564 29° Northeast 440 506 31,000  Level Kansas City Center
Fri 11:45:19 AM 40.1150 -93.0606 30° Northeast 443 510 31,000 -339 Level Kansas City Center
Fri 11:46:21 AM 40.2286 -92.9769 29° Northeast 434 499 30,300 -823 Descending Kansas City Center
Fri 11:47:23 AM 40.3294 -92.9050 29° Northeast 430 495 29,300 -629 Descending Kansas City Center
Fri 11:48:25 AM 40.4286 -92.8308 30° Northeast 429 494 29,000 -145 Descending Kansas City Center
Fri 11:49:27 AM 40.5433 -92.7439 30° Northeast 426 490 29,000  Level Kansas City Center
Fri 11:50:29 AM 40.6422 -92.6692 30° Northeast 433 498 29,000  Level Kansas City Center
Fri 11:51:11 AM 40.7269 -92.6036 30° Northeast 439 505 29,000  Level Chicago Center
Fri 11:52:13 AM 40.8314 -92.5258 29° Northeast 433 498 29,000 -968 Level Chicago Center
Fri 11:53:15 AM 40.9353 -92.4481 29° Northeast 430 495 27,000 -2,439 Descending Chicago Center
Fri 11:54:16 AM 41.0358 -92.3692 31° Northeast 422 486 24,000 -2,927 Descending Chicago Center
Fri 11:55:18 AM 41.1356 -92.2939 30° Northeast 414 476 21,000 -2,952 Descending Chicago Center
Fri 11:56:20 AM 41.2353 -92.2158 30° Northeast 404 465 17,900 -2,927 Descending Chicago Center
Fri 11:57:21 AM 41.3278 -92.1447 30° Northeast 389 448 15,000 -2,537 Descending Chicago Center
Fri 11:58:23 AM 41.4331 -92.0647 30° Northeast 365 420 12,700 -1,902 Descending Chicago Center
Fri 11:59:24 AM 41.5161 -92.0294 18° North 331 381 11,100 -1,610 Descending Chicago Center
Fri 12:00:26 PM 41.6019 -92.0308 359° North 310 357 9,400 -1,805 Descending Chicago Center
Fri 12:01:27 PM 41.6858 -92.0328 359° North 302 348 7,400 -1,805 Descending Chicago Center
Fri 12:02:29 PM 41.7639 -92.0350 359° North 288 331 5,700 -1,742 Descending Chicago Center
Fri 12:03:31 PM 41.8350 -92.0375 358° North 271 312 3,800 -1,561 Descending Chicago Center
Fri 12:04:32 PM 41.8711 -91.9833 48° Northeast 235 270 2,500 -683 Descending Chicago Center
Fri 12:05:34 PM 41.8858 -91.9064 76° East 202 232 2,400 -97 Descending Chicago Center

Login

Don't have an account? Register now (free) for customized features, flight alerts, and more!